Time;durP1;ratioP1;P1;durP2;ratioP2;P2;SDS_P1;SDS_P2;PMS_P1;PMS_P2;Temp;Humidity;BMP_temperature;BMP_pressure;BME280_temperature;BME280_humidity;BME280_pressure;Samples;Min_cycle;Max_cycle;Signal;HPM_P1;HPM_P2
2024/04/07 00:01:20;;;;;;;4.93;3.22;;;20.40;62.20;;;;;;5041522;28;20036;-68
2024/04/07 00:03:46;;;;;;;4.03;3.50;;;20.40;62.20;;;;;;5043543;28;20076;-68
2024/04/07 00:06:11;;;;;;;3.55;3.20;;;20.40;62.30;;;;;;5042144;28;20594;-68
2024/04/07 00:08:37;;;;;;;3.30;3.00;;;20.40;62.20;;;;;;5040773;28;20036;-66
2024/04/07 00:11:05;;;;;;;3.97;3.45;;;20.40;62.30;;;;;;5042212;28;20432;-66
2024/04/07 00:13:31;;;;;;;6.18;3.78;;;20.40;62.30;;;;;;5041777;28;20108;-66
2024/04/07 00:15:57;;;;;;;3.97;3.50;;;20.40;62.20;;;;;;5043066;28;20488;-69
2024/04/07 00:18:23;;;;;;;4.10;3.70;;;20.40;62.20;;;;;;5045098;28;20043;-69
2024/04/07 00:20:59;;;;;;;4.30;3.22;;;20.40;62.30;;;;;;5043173;28;20037;-66
2024/04/07 00:23:25;;;;;;;3.95;3.55;;;20.40;62.20;;;;;;5041487;28;20288;-69
2024/04/07 00:25:50;;;;;;;3.80;3.40;;;20.40;62.30;;;;;;5043586;28;20355;-68
2024/04/07 00:28:16;;;;;;;5.10;3.97;;;20.40;62.30;;;;;;5043251;28;20124;-68
2024/04/07 00:30:43;;;;;;;3.55;3.25;;;20.40;62.20;;;;;;5041507;28;20532;-67
2024/04/07 00:33:09;;;;;;;3.90;3.47;;;20.40;62.30;;;;;;5043530;28;20491;-66
2024/04/07 00:35:35;;;;;;;4.43;3.50;;;20.40;62.20;;;;;;5042115;28;20120;-67
2024/04/07 00:38:00;;;;;;;3.95;3.55;;;20.40;62.30;;;;;;5044262;28;20053;-66
2024/04/07 00:40:26;;;;;;;5.03;3.60;;;20.40;62.30;;;;;;5040657;28;20118;-66
2024/04/07 00:42:51;;;;;;;4.07;3.67;;;20.40;62.20;;;;;;5043665;28;20060;-66
2024/04/07 00:45:17;;;;;;;5.15;3.75;;;20.40;62.30;;;;;;5041986;28;20466;-70
2024/04/07 00:47:42;;;;;;;3.53;3.15;;;20.40;62.30;;;;;;5040879;28;20033;-65
2024/04/07 00:50:09;;;;;;;4.20;3.47;;;20.40;62.20;;;;;;5042354;28;20515;-66
2024/04/07 00:52:35;;;;;;;3.90;3.50;;;20.40;62.30;;;;;;5040494;28;20044;-66
2024/04/07 00:55:03;;;;;;;4.05;3.25;;;20.40;62.30;;;;;;5042918;28;20033;-66
2024/04/07 00:57:29;;;;;;;4.57;3.80;;;20.50;62.30;;;;;;5039850;28;20086;-69
2024/04/07 00:59:56;;;;;;;4.55;4.10;;;20.40;62.30;;;;;;5039212;28;20566;-70
2024/04/07 01:02:21;;;;;;;4.63;3.70;;;20.40;62.30;;;;;;5036838;28;20048;-66
2024/04/07 01:04:47;;;;;;;3.65;3.22;;;20.40;62.30;;;;;;5037690;28;20357;-70
2024/04/07 01:07:12;;;;;;;3.65;3.20;;;20.40;62.30;;;;;;5036779;28;20138;-69
2024/04/07 01:09:39;;;;;;;4.22;3.70;;;20.40;62.40;;;;;;5036119;28;20047;-69
2024/04/07 01:12:14;;;;;;;4.00;3.40;;;20.40;62.30;;;;;;5038113;28;20025;-66
2024/04/07 01:14:40;;;;;;;;;;;20.40;62.40;;;;;;5038119;28;20102;-68
2024/04/07 01:17:08;;;;;;;4.38;3.22;;;20.40;62.40;;;;;;5039678;28;20375;-69
2024/04/07 01:19:34;;;;;;;5.53;3.78;;;20.40;62.50;;;;;;5042956;28;20040;-70
2024/04/07 01:22:00;;;;;;;3.92;3.35;;;20.40;62.50;;;;;;5044515;28;20033;-66
2024/04/07 01:24:26;;;;;;;4.60;3.20;;;20.40;62.50;;;;;;5042669;28;20032;-69
2024/04/07 01:26:52;;;;;;;4.90;3.85;;;20.40;62.50;;;;;;5043884;28;20127;-68
2024/04/07 01:29:17;;;;;;;4.07;3.70;;;20.40;62.50;;;;;;5042889;28;20128;-68
2024/04/07 01:31:43;;;;;;;4.65;3.75;;;20.40;62.50;;;;;;5038706;28;20479;-69
2024/04/07 01:34:09;;;;;;;4.65;3.38;;;20.40;62.50;;;;;;5042986;28;20104;-66
2024/04/07 01:36:34;;;;;;;4.80;3.63;;;20.40;62.50;;;;;;5041060;28;20021;-69
2024/04/07 01:39:00;;;;;;;3.90;3.50;;;20.40;62.60;;;;;;5042450;28;20640;-66
2024/04/07 01:41:25;;;;;;;4.07;3.60;;;20.40;62.60;;;;;;5040660;28;20051;-69
2024/04/07 01:43:50;;;;;;;5.35;3.63;;;20.40;62.60;;;;;;5042545;28;20029;-69
2024/04/07 01:46:16;;;;;;;6.63;4.10;;;20.40;62.60;;;;;;5036110;28;20025;-67
2024/04/07 01:48:41;;;;;;;4.05;3.45;;;20.40;62.60;;;;;;5039627;28;20048;-69
2024/04/07 01:51:07;;;;;;;4.07;3.47;;;20.40;62.70;;;;;;5041096;28;20061;-69
2024/04/07 01:53:33;;;;;;;3.70;3.25;;;20.30;62.60;;;;;;5040077;28;20040;-68
2024/04/07 01:55:58;;;;;;;3.53;3.22;;;20.40;62.70;;;;;;5042379;28;20044;-68
2024/04/07 01:58:24;;;;;;;3.78;3.15;;;20.30;62.70;;;;;;5039243;28;20037;-68
2024/04/07 02:00:50;;;;;;;4.10;3.17;;;20.40;62.70;;;;;;5029389;28;20037;-69
2024/04/07 02:03:15;;;;;;;4.13;3.45;;;20.40;62.70;;;;;;5030489;28;20524;-68
2024/04/07 02:05:41;;;;;;;4.13;3.63;;;20.40;62.70;;;;;;5025671;28;20071;-68
2024/04/07 02:08:08;;;;;;;3.55;3.25;;;20.30;63.30;;;;;;5027898;28;20053;-68
2024/04/07 02:10:33;;;;;;;4.05;3.45;;;20.30;62.70;;;;;;5031436;28;20407;-69
2024/04/07 02:13:00;;;;;;;3.72;3.40;;;20.30;62.70;;;;;;5033941;28;20086;-69
2024/04/07 02:15:25;;;;;;;5.68;3.13;;;20.30;62.60;;;;;;5035612;28;20086;-69
2024/04/07 02:17:51;;;;;;;3.60;3.30;;;20.30;62.70;;;;;;5028448;28;20063;-68
2024/04/07 02:20:16;;;;;;;3.80;3.20;;;20.40;62.70;;;;;;5034627;28;20090;-69
2024/04/07 02:22:43;;;;;;;3.30;2.90;;;20.30;62.70;;;;;;5032888;28;20029;-69
2024/04/07 02:25:10;;;;;;;4.60;3.70;;;20.30;62.70;;;;;;5034024;28;20049;-68
2024/04/07 02:27:35;;;;;;;3.55;3.20;;;20.30;62.70;;;;;;5033831;28;20022;-68
2024/04/07 02:30:04;;;;;;;3.67;3.38;;;20.30;62.70;;;;;;5033238;28;20419;-69
2024/04/07 02:32:32;;;;;;;4.25;3.42;;;20.30;62.70;;;;;;5035827;28;20039;-68
2024/04/07 02:34:57;;;;;;;3.53;2.97;;;20.30;62.70;;;;;;5039778;28;20499;-70
2024/04/07 02:37:23;;;;;;;3.80;3.40;;;20.30;62.70;;;;;;5036547;28;20033;-69
2024/04/07 02:39:48;;;;;;;3.85;3.17;;;20.30;62.70;;;;;;5033637;28;20086;-68
2024/04/07 02:42:14;;;;;;;3.78;3.38;;;20.30;62.70;;;;;;5030869;28;20558;-67
2024/04/07 02:50:09;;;;;;;3.53;2.88;;;20.30;62.70;;;;;;5029539;28;20044;-69
2024/04/07 02:52:34;;;;;;;4.53;3.10;;;20.30;62.80;;;;;;5036431;28;20052;-70
2024/04/07 02:55:00;;;;;;;3.20;2.90;;;20.40;62.80;;;;;;5032147;28;20049;-72
2024/04/07 02:57:25;;;;;;;3.42;3.13;;;20.40;62.80;;;;;;5041021;28;20439;-70
2024/04/07 02:59:51;;;;;;;3.72;3.20;;;20.30;62.70;;;;;;5032598;28;20059;-69
2024/04/07 03:02:16;;;;;;;3.20;2.88;;;20.30;62.80;;;;;;5035915;28;20037;-68
2024/04/07 03:04:42;;;;;;;3.72;2.97;;;20.30;62.80;;;;;;5038745;28;20033;-69
2024/04/07 03:07:07;;;;;;;4.10;3.08;;;20.30;62.80;;;;;;5038841;28;20087;-71
2024/04/07 03:09:33;;;;;;;2.88;2.55;;;20.40;62.90;;;;;;5038566;28;20499;-69
2024/04/07 03:11:58;;;;;;;4.03;3.25;;;20.30;62.80;;;;;;5034395;28;20025;-69
2024/04/07 03:14:24;;;;;;;3.65;3.35;;;20.30;62.80;;;;;;5041459;28;20040;-68
2024/04/07 03:16:49;;;;;;;2.88;2.40;;;20.30;62.70;;;;;;5034911;28;20035;-69
2024/04/07 03:19:15;;;;;;;3.00;2.58;;;20.30;62.80;;;;;;5030409;28;20029;-70
2024/04/07 03:21:40;;;;;;;3.60;2.63;;;20.30;62.80;;;;;;5035378;28;20792;-71
2024/04/07 03:24:06;;;;;;;3.47;2.60;;;20.30;62.80;;;;;;5037504;28;20033;-69
2024/04/07 03:26:31;;;;;;;3.17;2.88;;;20.30;62.80;;;;;;5034104;28;20482;-69
2024/04/07 03:28:56;;;;;;;4.22;2.70;;;20.30;62.80;;;;;;5033061;28;20254;-69
2024/04/07 03:31:22;;;;;;;3.22;2.92;;;20.40;62.90;;;;;;5030026;28;20087;-70
2024/04/07 03:33:48;;;;;;;2.85;2.55;;;20.30;62.80;;;;;;5036079;28;20492;-70
2024/04/07 03:36:14;;;;;;;3.33;2.60;;;20.30;62.80;;;;;;5036211;28;20104;-70
2024/04/07 03:38:39;;;;;;;3.22;2.90;;;20.30;62.80;;;;;;5041037;28;20033;-69
2024/04/07 03:41:05;;;;;;;2.83;2.40;;;20.30;62.80;;;;;;5040589;28;20292;-70
2024/04/07 03:43:31;;;;;;;3.60;2.58;;;20.30;62.80;;;;;;5039734;28;20271;-69
2024/04/07 03:46:02;;;;;;;3.05;2.60;;;20.30;62.70;;;;;;5038438;28;20037;-70
2024/04/07 03:48:28;;;;;;;3.05;2.72;;;20.30;62.70;;;;;;5041740;28;20374;-69
2024/04/07 03:50:53;;;;;;;2.70;2.45;;;20.30;62.80;;;;;;5031158;28;20408;-69
2024/04/07 03:53:19;;;;;;;2.65;2.33;;;20.30;62.70;;;;;;5032344;28;20083;-69
2024/04/07 03:55:44;;;;;;;3.70;2.58;;;20.30;62.80;;;;;;5033411;28;20032;-68
2024/04/07 03:58:10;;;;;;;2.75;2.53;;;20.30;62.80;;;;;;5041285;28;20075;-70
2024/04/07 04:00:35;;;;;;;2.65;2.42;;;20.30;62.80;;;;;;5026389;28;20443;-68
2024/04/07 04:03:02;;;;;;;2.80;2.50;;;20.30;62.70;;;;;;5044053;28;20067;-69
2024/04/07 04:05:27;;;;;;;2.95;2.65;;;20.30;62.70;;;;;;5012386;28;20041;-69
2024/04/07 04:07:53;;;;;;;3.15;2.58;;;20.30;62.80;;;;;;5050518;28;20499;-70
2024/04/07 04:10:18;;;;;;;3.08;2.65;;;20.30;62.80;;;;;;5040989;28;20091;-68
2024/04/07 04:12:44;;;;;;;4.38;2.65;;;20.30;62.80;;;;;;5038424;28;20029;-71
2024/04/07 04:15:09;;;;;;;3.00;2.40;;;20.30;62.80;;;;;;5037841;28;20041;-70
2024/04/07 04:17:35;;;;;;;2.95;2.20;;;20.30;62.80;;;;;;5035909;28;21488;-69
2024/04/07 04:20:03;;;;;;;2.75;2.00;;;20.30;62.80;;;;;;5034875;28;20045;-69
2024/04/07 04:22:28;;;;;;;3.83;2.75;;;20.30;62.80;;;;;;5043353;28;20025;-69
2024/04/07 04:24:55;;;;;;;3.13;2.50;;;20.30;62.80;;;;;;5035858;28;20068;-69
2024/04/07 04:27:21;;;;;;;2.78;2.20;;;20.30;62.80;;;;;;5029079;28;20112;-69
2024/04/07 04:29:47;;;;;;;2.88;2.33;;;20.30;62.80;;;;;;5040110;28;20394;-68
2024/04/07 04:32:12;;;;;;;2.88;2.13;;;20.30;62.80;;;;;;5034973;28;20146;-70
2024/04/07 04:34:38;;;;;;;2.22;2.03;;;20.30;62.80;;;;;;5035858;28;20032;-69
2024/04/07 04:37:04;;;;;;;2.58;2.08;;;20.40;62.80;;;;;;5038325;28;20049;-70
2024/04/07 04:39:30;;;;;;;2.97;2.15;;;20.30;62.80;;;;;;5036087;28;20033;-68
2024/04/07 04:41:55;;;;;;;2.50;2.10;;;20.30;62.90;;;;;;5038488;28;20034;-68
2024/04/07 04:44:21;;;;;;;2.25;2.05;;;20.30;62.80;;;;;;5030416;28;20034;-70
2024/04/07 04:46:48;;;;;;;2.67;2.08;;;20.40;62.80;;;;;;5034724;28;20484;-68
2024/04/07 04:49:17;;;;;;;3.00;2.10;;;20.30;62.80;;;;;;5035023;28;20478;-70
2024/04/07 04:51:43;;;;;;;2.65;1.95;;;20.30;62.80;;;;;;5031458;28;20068;-69
2024/04/07 04:54:10;;;;;;;2.25;1.90;;;20.40;62.80;;;;;;5031213;28;20091;-69
2024/04/07 04:56:37;;;;;;;3.13;2.20;;;20.40;62.80;;;;;;5040141;28;20048;-69
2024/04/07 04:59:03;;;;;;;3.88;1.90;;;20.30;62.70;;;;;;5035441;28;20079;-70
2024/04/07 05:01:29;;;;;;;3.45;2.53;;;20.30;62.80;;;;;;5030988;28;20037;-69
2024/04/07 05:03:55;;;;;;;2.13;1.92;;;20.40;62.80;;;;;;5033501;28;20086;-70
2024/04/07 05:06:20;;;;;;;3.60;2.13;;;20.40;62.80;;;;;;5041346;28;20040;-69
2024/04/07 05:08:47;;;;;;;2.10;1.77;;;20.40;62.80;;;;;;5031594;28;20044;-69
2024/04/07 05:11:14;;;;;;;3.00;2.00;;;20.40;62.80;;;;;;5038366;28;20033;-69
2024/04/07 05:13:40;;;;;;;2.30;1.95;;;20.40;62.80;;;;;;5042386;28;20036;-69
2024/04/07 05:16:06;;;;;;;2.47;2.00;;;20.40;62.80;;;;;;5038137;28;20032;-69
2024/04/07 05:18:32;;;;;;;2.30;2.10;;;20.40;62.80;;;;;;5033763;28;20059;-70
2024/04/07 05:21:07;;;;;;;2.55;1.75;;;20.40;62.80;;;;;;5040370;28;20535;-70
2024/04/07 05:23:35;;;;;;;1.75;1.65;;;20.30;62.70;;;;;;5032939;28;20108;-69
2024/04/07 05:26:14;;;;;;;2.40;2.20;;;20.40;62.70;;;;;;5029565;28;21057;-70
2024/04/07 05:28:40;;;;;;;1.63;1.52;;;20.40;62.70;;;;;;5035349;28;20044;-69
2024/04/07 05:31:12;;;;;;;2.70;1.95;;;20.40;62.70;;;;;;5036610;28;20117;-69
2024/04/07 05:33:45;;;;;;;2.50;1.85;;;20.40;62.60;;;;;;5032256;28;20088;-68
2024/04/07 05:36:11;;;;;;;1.75;1.50;;;20.40;62.70;;;;;;5028358;28;20400;-70
2024/04/07 05:38:40;;;;;;;2.22;2.00;;;20.40;62.60;;;;;;5037325;28;20040;-69
2024/04/07 05:41:06;;;;;;;2.08;1.55;;;20.40;62.70;;;;;;5041815;28;20037;-70
2024/04/07 05:43:32;;;;;;;2.00;1.73;;;20.50;62.50;;;;;;5035929;28;20083;-69
2024/04/07 05:46:03;;;;;;;2.28;1.75;;;20.40;62.40;;;;;;5040530;28;20029;-70
2024/04/07 05:48:32;;;;;;;1.70;1.48;;;20.50;62.40;;;;;;5039858;28;20033;-66
2024/04/07 05:50:58;;;;;;;1.67;1.50;;;20.50;62.40;;;;;;5028130;28;20087;-70
2024/04/07 05:53:24;;;;;;;2.00;1.60;;;20.50;62.30;;;;;;5033131;28;20034;-70
2024/04/07 05:55:49;;;;;;;1.80;1.55;;;20.50;62.30;;;;;;5039642;28;20083;-70
2024/04/07 05:58:15;;;;;;;2.10;1.70;;;20.60;62.30;;;;;;5039402;28;20029;-69
2024/04/07 06:00:41;;;;;;;1.85;1.65;;;20.60;62.40;;;;;;5039233;28;20719;-70
2024/04/07 06:03:06;;;;;;;2.10;1.55;;;20.60;62.30;;;;;;5031524;28;20124;-70
2024/04/07 06:05:34;;;;;;;1.80;1.40;;;20.60;62.20;;;;;;5031305;28;20044;-69
2024/04/07 06:08:00;;;;;;;2.00;1.70;;;20.60;62.20;;;;;;5036227;28;20025;-69
2024/04/07 06:10:25;;;;;;;1.95;1.77;;;20.60;62.20;;;;;;5034159;28;20052;-70
2024/04/07 06:12:51;;;;;;;1.65;1.40;;;20.60;62.20;;;;;;5037093;28;20040;-69
2024/04/07 06:15:18;;;;;;;1.50;1.40;;;20.60;62.20;;;;;;5033883;28;20412;-69
2024/04/07 06:17:46;;;;;;;2.15;1.95;;;20.60;62.20;;;;;;5040545;28;20102;-69
2024/04/07 06:20:11;;;;;;;2.28;1.60;;;20.60;62.30;;;;;;5033467;28;20058;-69
2024/04/07 06:22:37;;;;;;;1.60;1.50;;;20.60;62.50;;;;;;5041209;28;20518;-69
2024/04/07 06:25:03;;;;;;;1.75;1.63;;;20.60;62.20;;;;;;5041088;28;20055;-67
2024/04/07 06:27:28;;;;;;;2.20;2.00;;;20.60;62.30;;;;;;5044634;28;20119;-69
2024/04/07 06:29:58;;;;;;;1.50;1.40;;;20.60;62.40;;;;;;5041770;28;20040;-70
2024/04/07 06:32:27;;;;;;;1.35;1.25;;;20.60;62.30;;;;;;5038937;28;20080;-69
2024/04/07 06:34:53;;;;;;;1.90;1.80;;;20.60;62.40;;;;;;5041815;28;20226;-68
2024/04/07 06:37:18;;;;;;;1.50;1.40;;;20.60;62.40;;;;;;5040572;28;20036;-70
2024/04/07 06:39:44;;;;;;;2.05;1.30;;;20.70;62.60;;;;;;5042346;28;20037;-70
2024/04/07 06:42:09;;;;;;;1.30;1.20;;;20.70;62.60;;;;;;5038661;28;20396;-66
2024/04/07 06:44:35;;;;;;;1.52;1.35;;;20.70;62.40;;;;;;5043889;28;20388;-69
2024/04/07 06:47:04;;;;;;;1.77;1.67;;;20.70;62.40;;;;;;5038804;28;20037;-69
2024/04/07 06:49:30;;;;;;;2.33;1.30;;;20.70;62.40;;;;;;5044402;28;20036;-70
2024/04/07 06:51:55;;;;;;;1.88;1.60;;;20.70;62.50;;;;;;5038107;28;20415;-72
2024/04/07 06:54:21;;;;;;;1.77;1.38;;;20.70;62.40;;;;;;5041107;28;20063;-70
2024/04/07 06:56:46;;;;;;;1.48;1.38;;;20.70;62.60;;;;;;5043761;28;20040;-71
2024/04/07 06:59:12;;;;;;;1.60;1.50;;;20.70;62.30;;;;;;5036925;28;20494;-67
2024/04/07 07:01:37;;;;;;;3.13;1.50;;;20.70;63.00;;;;;;5040998;28;20029;-70
2024/04/07 07:04:05;;;;;;;1.48;1.25;;;20.70;62.30;;;;;;5040107;28;20065;-66
2024/04/07 07:06:31;;;;;;;1.58;1.40;;;20.70;62.50;;;;;;5040305;28;20033;-68
2024/04/07 07:08:57;;;;;;;2.08;1.50;;;20.70;63.10;;;;;;5040068;28;20551;-71
2024/04/07 07:11:23;;;;;;;2.55;1.48;;;20.70;62.60;;;;;;5042919;28;20408;-67
2024/04/07 07:13:53;;;;;;;1.65;1.55;;;20.70;62.60;;;;;;5044480;28;20502;-69
2024/04/07 07:16:19;;;;;;;1.60;1.50;;;20.70;62.60;;;;;;5033610;28;20113;-71
2024/04/07 07:18:44;;;;;;;1.50;1.17;;;20.70;62.50;;;;;;5044144;28;20108;-66
2024/04/07 07:21:10;;;;;;;1.85;1.40;;;20.70;62.60;;;;;;5040289;28;20314;-71
2024/04/07 07:23:35;;;;;;;1.42;1.30;;;20.70;62.40;;;;;;5041787;28;20033;-73
2024/04/07 07:26:02;;;;;;;2.45;1.30;;;20.70;62.40;;;;;;5039410;28;20124;-65
2024/04/07 07:28:29;;;;;;;1.40;1.27;;;20.70;62.60;;;;;;5040695;28;20117;-71
2024/04/07 07:30:54;;;;;;;1.40;1.30;;;20.70;62.60;;;;;;5037667;28;20040;-70
2024/04/07 07:33:20;;;;;;;1.02;0.90;;;20.70;62.50;;;;;;5037976;28;20037;-71
2024/04/07 07:35:45;;;;;;;1.30;1.05;;;20.70;62.70;;;;;;5039686;28;20078;-70
2024/04/07 07:38:11;;;;;;;3.08;1.50;;;20.70;62.50;;;;;;5042672;28;20041;-66
2024/04/07 07:40:36;;;;;;;1.92;1.50;;;20.70;62.60;;;;;;5033126;28;20128;-69
2024/04/07 07:43:03;;;;;;;2.78;1.40;;;20.70;62.60;;;;;;5034912;28;20037;-70
2024/04/07 07:45:29;;;;;;;2.17;1.42;;;20.70;62.50;;;;;;5041443;28;20449;-70
2024/04/07 07:47:54;;;;;;;2.30;1.40;;;20.70;62.60;;;;;;5036063;28;20055;-71
2024/04/07 07:50:20;;;;;;;2.55;1.15;;;20.70;62.60;;;;;;5050162;28;20037;-69
2024/04/07 07:52:46;;;;;;;1.60;1.33;;;20.80;62.80;;;;;;5037975;28;20067;-70
2024/04/07 07:55:12;;;;;;;1.70;1.30;;;20.80;62.50;;;;;;5038595;28;21761;-70
2024/04/07 07:57:37;;;;;;;2.28;1.30;;;20.80;62.40;;;;;;5038380;28;20039;-67
2024/04/07 08:00:05;;;;;;;2.05;1.30;;;20.80;62.40;;;;;;5040340;28;20419;-70
2024/04/07 08:02:33;;;;;;;1.75;1.30;;;20.80;62.30;;;;;;5041967;28;20475;-70
2024/04/07 08:04:59;;;;;;;1.25;1.15;;;20.80;62.30;;;;;;5040814;28;20037;-70
2024/04/07 08:07:24;;;;;;;2.08;1.25;;;20.80;62.30;;;;;;5038899;28;20048;-70
2024/04/07 08:09:50;;;;;;;3.65;1.60;;;20.80;62.40;;;;;;5037958;28;20353;-71
2024/04/07 08:12:15;;;;;;;2.38;1.27;;;20.80;62.10;;;;;;5030684;28;20518;-70
2024/04/07 08:14:41;;;;;;;1.40;1.00;;;20.80;62.30;;;;;;5055924;28;20036;-70
2024/04/07 08:17:07;;;;;;;4.47;1.40;;;20.80;62.40;;;;;;5038092;28;20109;-70
2024/04/07 08:19:33;;;;;;;1.88;1.10;;;20.80;62.30;;;;;;5038518;28;20538;-69
2024/04/07 08:21:59;;;;;;;2.05;1.38;;;20.80;62.20;;;;;;5039720;28;20021;-70
2024/04/07 08:24:24;;;;;;;3.50;1.50;;;20.80;62.30;;;;;;5036064;28;20026;-70
2024/04/07 08:26:49;;;;;;;2.35;1.67;;;20.80;62.30;;;;;;5040881;28;20041;-73
2024/04/07 08:29:15;;;;;;;1.25;1.00;;;20.80;62.20;;;;;;5042257;28;20040;-69
2024/04/07 08:31:40;;;;;;;1.63;1.15;;;20.80;62.10;;;;;;5042676;28;20029;-70
2024/04/07 08:34:06;;;;;;;1.58;1.10;;;20.80;62.00;;;;;;5040156;28;20074;-68
2024/04/07 08:36:31;;;;;;;1.83;1.00;;;20.80;62.20;;;;;;5038636;28;20118;-69
2024/04/07 08:38:57;;;;;;;2.10;0.85;;;20.80;62.00;;;;;;5037992;28;20699;-71
2024/04/07 08:41:22;;;;;;;2.72;1.27;;;20.90;62.10;;;;;;5038274;28;20036;-70
2024/04/07 08:43:49;;;;;;;2.30;1.30;;;20.80;62.00;;;;;;5040999;28;20657;-71
2024/04/07 08:46:15;;;;;;;1.98;1.30;;;20.80;61.90;;;;;;5039278;28;20086;-69
2024/04/07 08:48:44;;;;;;;1.80;1.10;;;20.80;62.00;;;;;;5039370;28;20036;-70
2024/04/07 08:51:11;;;;;;;2.45;1.30;;;20.80;62.00;;;;;;5023851;28;20067;-70
2024/04/07 08:53:39;;;;;;;2.80;1.27;;;20.80;62.00;;;;;;5039115;28;20798;-70
2024/04/07 08:56:07;;;;;;;2.35;1.10;;;20.90;62.10;;;;;;5038769;28;20106;-71
2024/04/07 08:58:34;;;;;;;1.30;0.95;;;20.90;61.90;;;;;;5039615;28;20029;-70
2024/04/07 09:01:01;;;;;;;1.45;0.98;;;20.90;61.90;;;;;;5039975;28;20075;-70
2024/04/07 09:03:28;;;;;;;1.40;1.17;;;20.90;61.90;;;;;;5040654;28;20037;-71
2024/04/07 09:05:54;;;;;;;1.88;1.25;;;20.80;62.00;;;;;;5033507;28;20063;-68
2024/04/07 09:08:20;;;;;;;1.98;1.20;;;20.90;62.00;;;;;;5036373;28;20755;-70
2024/04/07 09:10:45;;;;;;;3.25;1.08;;;20.90;61.90;;;;;;5033576;28;20462;-69
2024/04/07 09:13:11;;;;;;;1.58;0.95;;;20.90;62.00;;;;;;5036621;28;20056;-72
2024/04/07 09:15:36;;;;;;;3.45;1.10;;;20.90;62.50;;;;;;5036086;28;20048;-71
2024/04/07 09:18:02;;;;;;;2.33;1.13;;;20.90;61.70;;;;;;5030810;28;20875;-70
2024/04/07 09:20:30;;;;;;;2.40;0.88;;;20.90;61.90;;;;;;5008064;28;20444;-69
2024/04/07 09:22:55;;;;;;;1.35;0.98;;;20.90;62.00;;;;;;5035491;28;20313;-72
2024/04/07 09:25:21;;;;;;;7.68;1.48;;;20.90;62.00;;;;;;5037239;28;20056;-71
2024/04/07 09:27:46;;;;;;;1.70;1.05;;;20.90;61.90;;;;;;5037012;28;20488;-71
2024/04/07 09:30:12;;;;;;;2.70;1.10;;;20.90;61.90;;;;;;5031608;28;20071;-70
2024/04/07 09:32:37;;;;;;;2.13;1.10;;;20.90;61.90;;;;;;5046288;28;20040;-70
2024/04/07 09:35:03;;;;;;;1.55;1.08;;;20.90;62.10;;;;;;5035018;28;20499;-70
2024/04/07 09:37:29;;;;;;;1.80;1.10;;;20.90;62.00;;;;;;5034544;28;20480;-70
2024/04/07 09:39:55;;;;;;;1.50;1.10;;;20.90;62.00;;;;;;5034329;28;20045;-71
2024/04/07 09:42:21;;;;;;;2.90;0.93;;;20.90;62.00;;;;;;5034775;28;20044;-69
2024/04/07 09:44:47;;;;;;;3.00;1.20;;;20.90;61.90;;;;;;5034947;28;20040;-68
2024/04/07 09:47:20;;;;;;;2.15;1.00;;;20.90;61.90;;;;;;5032287;28;20032;-71
2024/04/07 09:49:49;;;;;;;3.42;1.10;;;20.90;61.90;;;;;;5032857;28;20388;-70
2024/04/07 09:52:19;;;;;;;3.33;1.33;;;20.90;62.00;;;;;;5034054;28;20269;-71
2024/04/07 09:54:45;;;;;;;1.65;0.90;;;20.90;62.00;;;;;;5043812;28;20032;-69
2024/04/07 09:57:13;;;;;;;2.88;1.30;;;20.90;61.90;;;;;;5036615;28;20044;-67
2024/04/07 09:59:40;;;;;;;1.60;1.27;;;20.90;61.80;;;;;;5038976;28;20052;-70
2024/04/07 10:02:07;;;;;;;2.55;1.17;;;20.90;61.90;;;;;;5044167;28;20159;-70
2024/04/07 10:04:37;;;;;;;3.35;1.38;;;20.90;61.70;;;;;;5043424;28;20037;-70
2024/04/07 10:07:03;;;;;;;3.15;1.20;;;20.90;61.70;;;;;;5041597;28;20121;-70
2024/04/07 10:09:30;;;;;;;5.43;1.38;;;20.90;61.70;;;;;;5044421;28;20399;-69
2024/04/07 10:11:56;;;;;;;3.40;1.33;;;20.90;61.70;;;;;;5044352;28;20071;-71
2024/04/07 10:14:22;;;;;;;2.17;1.25;;;20.90;61.60;;;;;;5041951;28;20577;-70
2024/04/07 10:16:51;;;;;;;1.63;1.17;;;20.90;61.70;;;;;;5042893;28;20535;-70
2024/04/07 10:19:24;;;;;;;2.10;1.10;;;20.90;61.80;;;;;;5043298;28;20053;-71
2024/04/07 10:21:50;;;;;;;3.30;1.50;;;20.90;61.80;;;;;;5041522;28;20187;-70
2024/04/07 10:24:17;;;;;;;1.67;1.02;;;20.90;61.70;;;;;;5045047;28;20115;-70
2024/04/07 10:26:52;;;;;;;1.48;1.10;;;20.90;61.80;;;;;;5040693;28;20208;-70
2024/04/07 10:29:18;;;;;;;2.42;1.35;;;20.90;61.80;;;;;;5043844;28;20257;-70
2024/04/07 10:31:43;;;;;;;4.82;1.13;;;20.90;61.90;;;;;;5043615;28;20112;-73
2024/04/07 10:34:10;;;;;;;1.33;1.10;;;20.90;62.50;;;;;;5043345;28;20037;-70
2024/04/07 10:36:35;;;;;;;2.75;1.30;;;20.90;61.70;;;;;;5044601;28;20431;-70
2024/04/07 10:39:03;;;;;;;2.95;1.27;;;20.90;62.10;;;;;;5045732;28;20063;-69
2024/04/07 10:41:30;;;;;;;3.90;1.40;;;20.90;61.90;;;;;;5039908;28;20308;-70
2024/04/07 10:43:56;;;;;;;2.38;1.10;;;20.90;61.90;;;;;;5044289;28;20036;-71
2024/04/07 10:46:23;;;;;;;3.30;1.73;;;20.90;61.90;;;;;;5043120;28;20029;-70
2024/04/07 10:48:50;;;;;;;5.13;1.42;;;20.90;61.80;;;;;;5044202;28;20032;-70
2024/04/07 10:51:16;;;;;;;2.72;1.15;;;20.90;62.00;;;;;;5042215;28;20566;-70
2024/04/07 10:53:46;;;;;;;1.95;1.00;;;20.90;61.70;;;;;;5042554;28;20059;-70
2024/04/07 10:56:12;;;;;;;2.72;1.35;;;20.90;61.80;;;;;;5042043;28;20033;-69
2024/04/07 10:58:38;;;;;;;3.78;1.40;;;20.90;61.90;;;;;;5043040;28;20526;-68
2024/04/07 11:01:04;;;;;;;2.78;1.38;;;20.90;61.90;;;;;;5044945;28;20114;-70
2024/04/07 11:03:30;;;;;;;2.67;1.17;;;20.90;61.80;;;;;;5042595;28;20036;-70
2024/04/07 11:06:00;;;;;;;4.20;1.58;;;20.90;61.80;;;;;;5045141;28;20104;-71
2024/04/07 11:08:26;;;;;;;4.88;1.40;;;20.90;61.80;;;;;;5043438;28;20117;-67
2024/04/07 11:10:53;;;;;;;4.18;1.40;;;20.90;61.80;;;;;;5042792;28;20036;-71
2024/04/07 11:13:20;;;;;;;2.75;1.52;;;20.90;61.90;;;;;;5044125;28;20426;-67
2024/04/07 11:15:52;;;;;;;3.28;1.00;;;21.00;62.00;;;;;;5045847;28;20021;-70
2024/04/07 11:18:20;;;;;;;3.30;1.48;;;21.00;62.00;;;;;;5044071;28;20040;-70
2024/04/07 11:20:46;;;;;;;3.70;1.52;;;21.00;62.00;;;;;;5043647;28;20640;-67
2024/04/07 11:23:12;;;;;;;3.15;1.60;;;21.00;62.00;;;;;;5044784;28;20041;-68
2024/04/07 11:25:40;;;;;;;5.10;1.70;;;21.00;61.90;;;;;;5044134;28;20120;-69
2024/04/07 11:28:12;;;;;;;2.60;1.60;;;21.00;61.90;;;;;;5041679;28;20033;-70
2024/04/07 11:30:48;;;;;;;2.78;1.20;;;21.00;61.90;;;;;;5042811;28;20048;-69
2024/04/07 11:33:15;;;;;;;3.53;1.48;;;21.00;61.90;;;;;;5044554;28;20040;-71
2024/04/07 11:35:41;;;;;;;2.75;1.52;;;21.00;61.90;;;;;;5044008;28;20033;-70
2024/04/07 11:38:07;;;;;;;5.00;1.90;;;21.00;61.90;;;;;;5045556;28;20400;-70
2024/04/07 11:40:33;;;;;;;3.80;1.33;;;21.00;61.90;;;;;;5045119;28;20041;-69
2024/04/07 11:42:59;;;;;;;3.28;1.30;;;21.00;61.90;;;;;;5040037;28;20037;-71
2024/04/07 11:45:25;;;;;;;2.95;1.23;;;21.00;61.90;;;;;;5042780;28;20039;-67
2024/04/07 11:47:52;;;;;;;2.60;1.20;;;21.00;61.90;;;;;;5044350;28;20037;-69
2024/04/07 11:50:18;;;;;;;4.25;1.92;;;21.00;61.80;;;;;;5040662;28;20111;-70
2024/04/07 11:52:44;;;;;;;4.18;1.38;;;21.00;61.90;;;;;;5042446;28;20029;-66
2024/04/07 11:55:10;;;;;;;3.95;1.70;;;21.10;61.90;;;;;;5046466;28;20035;-67
2024/04/07 11:57:35;;;;;;;3.60;1.10;;;21.00;61.90;;;;;;5042493;28;20033;-67
2024/04/07 12:00:04;;;;;;;3.55;1.48;;;21.00;61.80;;;;;;5039927;28;20135;-66
2024/04/07 12:02:29;;;;;;;2.65;1.45;;;21.00;61.90;;;;;;5039254;28;20033;-65
2024/04/07 12:04:55;;;;;;;2.80;1.35;;;21.00;61.90;;;;;;5041222;28;20162;-71
2024/04/07 12:07:20;;;;;;;2.30;1.40;;;21.10;62.00;;;;;;5044125;28;20037;-64
2024/04/07 12:09:46;;;;;;;4.72;1.60;;;21.00;61.90;;;;;;5044742;28;20036;-70
2024/04/07 12:12:11;;;;;;;3.60;1.42;;;21.00;61.90;;;;;;5043704;28;20563;-66
2024/04/07 12:14:37;;;;;;;5.07;1.50;;;21.10;62.00;;;;;;5047060;28;20139;-69
2024/04/07 12:17:04;;;;;;;4.95;1.25;;;21.10;62.10;;;;;;5045362;28;20108;-70
2024/04/07 12:19:30;;;;;;;2.95;1.45;;;21.10;61.80;;;;;;5048213;28;20036;-65
2024/04/07 12:21:57;;;;;;;5.05;1.73;;;21.10;62.10;;;;;;5042614;28;20037;-68
2024/04/07 12:24:22;;;;;;;5.03;1.33;;;21.10;62.10;;;;;;5046743;28;20037;-70
2024/04/07 12:26:48;;;;;;;2.25;1.13;;;21.10;62.30;;;;;;5040257;28;20036;-68
2024/04/07 12:29:14;;;;;;;3.08;1.50;;;21.10;62.10;;;;;;5047436;28;20095;-71
2024/04/07 12:31:39;;;;;;;4.45;1.63;;;21.10;62.00;;;;;;5045465;28;20038;-70
2024/04/07 12:34:05;;;;;;;6.95;1.85;;;21.10;62.10;;;;;;5048303;28;20060;-71
2024/04/07 12:36:32;;;;;;;3.97;2.13;;;21.10;62.10;;;;;;5059789;28;20017;-67
2024/04/07 12:39:04;;;;;;;3.60;1.63;;;21.10;62.30;;;;;;5063868;28;20037;-71
2024/04/07 12:41:30;;;;;;;6.85;2.65;;;21.10;62.10;;;;;;5060184;28;20066;-70
2024/04/07 12:43:55;;;;;;;6.55;2.22;;;21.10;62.10;;;;;;5056193;28;20067;-72
2024/04/07 12:46:21;;;;;;;6.10;2.95;;;21.10;62.30;;;;;;5038783;28;20025;-66
2024/04/07 12:48:46;;;;;;;5.72;2.58;;;21.10;62.20;;;;;;5037156;28;20033;-70